EWG7XR LOWW-EDDK
Flight info
| Callsign | EWG7XR |
|---|---|
| Flight time | N/A |
| Altitude | 36000 |
| Route | BUWUT2B BUWUT DCT DITIS DCT RAPET T843 PILAM/N0383F320 T843 VELIS DCT MASEK T841 ERNEP ERNEP1B |
| Aircraft | A319/M-SDE2E3FGIJ1RWXYZ/EB1 |
Departure
| Time | 2026-05-06 18:23 |
|---|---|
| Airport | Vienna International Airport (LOWW) |
Arrival
| Time | N/A |
|---|---|
| Airport | Cologne Bonn Airport (EDDK) |
| Time | Latitude | Longitude | Altitude | Speed | Heading |
|---|---|---|---|---|---|
| 2026-05-06 17:45 | 48.12051 | 16.55642 | 613 ft | 0 kts | 116° |
| 2026-05-06 18:12 | 48.12051 | 16.55640 | 582 ft | 2 kts | 116° |
| 2026-05-06 18:12 | 48.12063 | 16.55606 | 623 ft | 4 kts | 122° |
| 2026-05-06 18:12 | 48.12079 | 16.55575 | 624 ft | 4 kts | 149° |
| 2026-05-06 18:12 | 48.12096 | 16.55570 | 617 ft | 1 kts | 206° |
| 2026-05-06 18:14 | 48.12095 | 16.55569 | 617 ft | 1 kts | 206° |
| 2026-05-06 18:14 | 48.12079 | 16.55557 | 618 ft | 5 kts | 206° |
| 2026-05-06 18:15 | 48.12032 | 16.55523 | 618 ft | 10 kts | 206° |
| 2026-05-06 18:15 | 48.11951 | 16.55465 | 610 ft | 16 kts | 205° |
| 2026-05-06 18:15 | 48.11871 | 16.55484 | 614 ft | 9 kts | 107° |
| 2026-05-06 18:15 | 48.11848 | 16.55592 | 610 ft | 13 kts | 109° |
| 2026-05-06 18:16 | 48.11801 | 16.55739 | 617 ft | 17 kts | 116° |
| 2026-05-06 18:16 | 48.11747 | 16.55905 | 612 ft | 19 kts | 114° |
| 2026-05-06 18:16 | 48.11689 | 16.56089 | 610 ft | 20 kts | 115° |
| 2026-05-06 18:16 | 48.11623 | 16.56285 | 620 ft | 22 kts | 118° |
| 2026-05-06 18:17 | 48.11551 | 16.56495 | 614 ft | 24 kts | 117° |
| 2026-05-06 18:17 | 48.11481 | 16.56717 | 619 ft | 17 kts | 115° |
| 2026-05-06 18:17 | 48.11434 | 16.56865 | 615 ft | 16 kts | 116° |
| 2026-05-06 18:17 | 48.11395 | 16.56988 | 615 ft | 14 kts | 115° |
| 2026-05-06 18:18 | 48.11351 | 16.57121 | 621 ft | 15 kts | 116° |
| 2026-05-06 18:18 | 48.11306 | 16.57263 | 619 ft | 13 kts | 114° |
| 2026-05-06 18:18 | 48.11348 | 16.57359 | 619 ft | 14 kts | 23° |
| 2026-05-06 18:18 | 48.11448 | 16.57429 | 610 ft | 18 kts | 26° |
| 2026-05-06 18:19 | 48.11585 | 16.57443 | 621 ft | 23 kts | 343° |
| 2026-05-06 18:19 | 48.11740 | 16.57374 | 612 ft | 17 kts | 343° |
| 2026-05-06 18:19 | 48.11870 | 16.57320 | 622 ft | 22 kts | 343° |
| 2026-05-06 18:19 | 48.11945 | 16.57287 | 617 ft | 7 kts | 344° |
| 2026-05-06 18:20 | 48.11987 | 16.57320 | 616 ft | 2 kts | 62° |
| 2026-05-06 18:20 | 48.12000 | 16.57365 | 613 ft | 7 kts | 73° |
| 2026-05-06 18:20 | 48.12014 | 16.57470 | 610 ft | 14 kts | 90° |
| 2026-05-06 18:20 | 48.11996 | 16.57590 | 610 ft | 0 kts | 105° |
| 2026-05-06 18:21 | 48.11995 | 16.57597 | 610 ft | 3 kts | 105° |
| 2026-05-06 18:21 | 48.11983 | 16.57661 | 610 ft | 10 kts | 105° |
| 2026-05-06 18:21 | 48.11958 | 16.57801 | 617 ft | 18 kts | 105° |
| 2026-05-06 18:21 | 48.11884 | 16.57857 | 619 ft | 0 kts | 164° |
| 2026-05-06 18:22 | 48.11865 | 16.57865 | 610 ft | 11 kts | 164° |
| 2026-05-06 18:22 | 48.11579 | 16.57986 | 613 ft | 77 kts | 164° |
| 2026-05-06 18:22 | 48.10875 | 16.58287 | 698 ft | 122 kts | 162° |
| 2026-05-06 18:23 | 48.10067 | 16.58619 | 1280 ft | 121 kts | 167° |
| 2026-05-06 18:23 | 48.09265 | 16.58961 | 1818 ft | 121 kts | 168° |
| 2026-05-06 18:23 | 48.08378 | 16.59334 | 2071 ft | 142 kts | 170° |
| 2026-05-06 18:23 | 48.07334 | 16.59753 | 2363 ft | 167 kts | 171° |
| 2026-05-06 18:24 | 48.06162 | 16.60402 | 2876 ft | 192 kts | 156° |
| 2026-05-06 18:24 | 48.05132 | 16.61806 | 3579 ft | 212 kts | 134° |
| 2026-05-06 18:24 | 48.04555 | 16.63928 | 3972 ft | 232 kts | 105° |
| 2026-05-06 18:24 | 48.04719 | 16.66391 | 4358 ft | 249 kts | 73° |
| 2026-05-06 18:25 | 48.05738 | 16.68494 | 5175 ft | 254 kts | 39° |
| 2026-05-06 18:25 | 48.07155 | 16.70046 | 6170 ft | 252 kts | 35° |
| 2026-05-06 18:25 | 48.08613 | 16.71653 | 6809 ft | 272 kts | 36° |
| 2026-05-06 18:25 | 48.10191 | 16.73425 | 7294 ft | 297 kts | 37° |
| 2026-05-06 18:26 | 48.11881 | 16.75331 | 8013 ft | 309 kts | 37° |
| 2026-05-06 18:26 | 48.13700 | 16.77021 | 8924 ft | 314 kts | 24° |
| 2026-05-06 18:26 | 48.15770 | 16.78085 | 9867 ft | 316 kts | 9° |
| 2026-05-06 18:26 | 48.17954 | 16.78409 | 10732 ft | 316 kts | 355° |
| 2026-05-06 18:27 | 48.20136 | 16.78011 | 11588 ft | 317 kts | 346° |
| 2026-05-06 18:27 | 48.22361 | 16.77406 | 12099 ft | 336 kts | 346° |
| 2026-05-06 18:27 | 48.24770 | 16.76755 | 12466 ft | 356 kts | 346° |
| 2026-05-06 18:27 | 48.27202 | 16.76109 | 13152 ft | 363 kts | 347° |
| 2026-05-06 18:28 | 48.29703 | 16.75453 | 13871 ft | 368 kts | 347° |
| 2026-05-06 18:28 | 48.32251 | 16.74785 | 14497 ft | 374 kts | 346° |
| 2026-05-06 18:28 | 48.34757 | 16.73743 | 15176 ft | 374 kts | 335° |
| 2026-05-06 18:28 | 48.37102 | 16.72074 | 15881 ft | 373 kts | 328° |
| 2026-05-06 18:29 | 48.39407 | 16.70262 | 16604 ft | 376 kts | 328° |
| 2026-05-06 18:29 | 48.41627 | 16.68209 | 17310 ft | 374 kts | 318° |
| 2026-05-06 18:29 | 48.43469 | 16.65500 | 18003 ft | 368 kts | 302° |
| 2026-05-06 18:29 | 48.44730 | 16.62190 | 18623 ft | 364 kts | 290° |
| 2026-05-06 18:30 | 48.45817 | 16.58736 | 19290 ft | 365 kts | 290° |
| 2026-05-06 18:30 | 48.46896 | 16.55256 | 19944 ft | 367 kts | 290° |
| 2026-05-06 18:30 | 48.47967 | 16.51769 | 20634 ft | 368 kts | 289° |
| 2026-05-06 18:30 | 48.49041 | 16.48256 | 21252 ft | 370 kts | 289° |
| 2026-05-06 18:31 | 48.50111 | 16.44745 | 21831 ft | 374 kts | 289° |
| 2026-05-06 18:31 | 48.51200 | 16.41176 | 22414 ft | 377 kts | 289° |
| 2026-05-06 18:31 | 48.52303 | 16.37565 | 22993 ft | 380 kts | 289° |
| 2026-05-06 18:31 | 48.53414 | 16.33927 | 23530 ft | 383 kts | 289° |
| 2026-05-06 18:32 | 48.54531 | 16.30261 | 24025 ft | 386 kts | 289° |
| 2026-05-06 18:32 | 48.55651 | 16.26571 | 24523 ft | 388 kts | 289° |
| 2026-05-06 18:32 | 48.56774 | 16.22862 | 25036 ft | 390 kts | 289° |
| 2026-05-06 18:32 | 48.57905 | 16.19134 | 25541 ft | 392 kts | 289° |
| 2026-05-06 18:33 | 48.59043 | 16.15388 | 26017 ft | 394 kts | 289° |
| 2026-05-06 18:33 | 48.60184 | 16.11620 | 26494 ft | 396 kts | 289° |
| 2026-05-06 18:33 | 48.61330 | 16.07827 | 26944 ft | 398 kts | 289° |
| 2026-05-06 18:33 | 48.62481 | 16.04017 | 27404 ft | 399 kts | 289° |
| 2026-05-06 18:34 | 48.63632 | 16.00188 | 27877 ft | 401 kts | 289° |
| 2026-05-06 18:34 | 48.64788 | 15.96337 | 28330 ft | 403 kts | 289° |
| 2026-05-06 18:34 | 48.65947 | 15.92467 | 28742 ft | 405 kts | 289° |
| 2026-05-06 18:34 | 48.67121 | 15.88553 | 29028 ft | 411 kts | 289° |
| 2026-05-06 18:35 | 48.68307 | 15.84594 | 29303 ft | 415 kts | 289° |
| 2026-05-06 18:35 | 48.69500 | 15.80612 | 29605 ft | 415 kts | 288° |
| 2026-05-06 18:35 | 48.71947 | 15.72686 | 29718 ft | 421 kts | 292° |
| 2026-05-06 18:36 | 48.74824 | 15.64814 | 30131 ft | 429 kts | 293° |
| 2026-05-06 18:36 | 48.76302 | 15.60891 | 30568 ft | 428 kts | 293° |
| 2026-05-06 18:36 | 48.77783 | 15.56988 | 31025 ft | 427 kts | 293° |
| 2026-05-06 18:37 | 48.79259 | 15.53098 | 31526 ft | 424 kts | 293° |
| 2026-05-06 18:37 | 48.80229 | 15.50531 | 31857 ft | 422 kts | 293° |
| 2026-05-06 18:37 | 48.82169 | 15.45368 | 32568 ft | 419 kts | 292° |
| 2026-05-06 18:37 | 48.83598 | 15.41528 | 33023 ft | 418 kts | 291° |
| 2026-05-06 18:38 | 48.85028 | 15.37680 | 33490 ft | 418 kts | 291° |
| 2026-05-06 18:38 | 48.86453 | 15.33841 | 33927 ft | 417 kts | 291° |
| 2026-05-06 18:38 | 48.87871 | 15.30010 | 34311 ft | 416 kts | 291° |
| 2026-05-06 18:38 | 48.89290 | 15.26172 | 34670 ft | 416 kts | 291° |
| 2026-05-06 18:39 | 48.90709 | 15.22331 | 35011 ft | 417 kts | 292° |
| 2026-05-06 18:39 | 48.92123 | 15.18490 | 35331 ft | 417 kts | 292° |
| 2026-05-06 18:39 | 48.93542 | 15.14636 | 35662 ft | 418 kts | 292° |
| 2026-05-06 18:40 | 48.96383 | 15.06914 | 36321 ft | 419 kts | 292° |
| 2026-05-06 18:40 | 48.97807 | 15.03041 | 36603 ft | 420 kts | 292° |
| 2026-05-06 18:40 | 48.99232 | 14.99164 | 36913 ft | 420 kts | 292° |
| 2026-05-06 18:40 | 49.00655 | 14.95277 | 37192 ft | 420 kts | 292° |
| 2026-05-06 18:41 | 49.02073 | 14.91383 | 37466 ft | 420 kts | 292° |
| 2026-05-06 18:41 | 49.03491 | 14.87482 | 37669 ft | 421 kts | 293° |
| 2026-05-06 18:41 | 49.04907 | 14.83587 | 37711 ft | 420 kts | 293° |
| 2026-05-06 18:42 | 49.07737 | 14.75815 | 37709 ft | 419 kts | 293° |
| 2026-05-06 18:42 | 49.10560 | 14.68033 | 37706 ft | 419 kts | 292° |
| 2026-05-06 18:43 | 49.13372 | 14.60244 | 37712 ft | 419 kts | 292° |
| 2026-05-06 18:43 | 49.16180 | 14.52437 | 37714 ft | 419 kts | 292° |
| 2026-05-06 18:44 | 49.18983 | 14.44614 | 37713 ft | 419 kts | 292° |
| 2026-05-06 18:44 | 49.21763 | 14.36850 | 37715 ft | 419 kts | 292° |
| 2026-05-06 18:45 | 49.24559 | 14.29025 | 37728 ft | 420 kts | 292° |
| 2026-05-06 18:45 | 49.27382 | 14.21107 | 37709 ft | 422 kts | 292° |
| 2026-05-06 18:46 | 49.30165 | 14.13252 | 37712 ft | 423 kts | 292° |
| 2026-05-06 18:46 | 49.32964 | 14.05314 | 37714 ft | 424 kts | 292° |
| 2026-05-06 18:47 | 49.35765 | 13.97359 | 37733 ft | 424 kts | 292° |
| 2026-05-06 18:47 | 49.38571 | 13.89383 | 37737 ft | 426 kts | 292° |
| 2026-05-06 18:48 | 49.41384 | 13.81363 | 37738 ft | 427 kts | 292° |
| 2026-05-06 18:48 | 49.44197 | 13.73323 | 37734 ft | 428 kts | 292° |
| 2026-05-06 18:49 | 49.47003 | 13.65259 | 37740 ft | 428 kts | 292° |
| 2026-05-06 18:49 | 49.49808 | 13.57172 | 37741 ft | 428 kts | 292° |
| 2026-05-06 18:50 | 49.52604 | 13.49075 | 37758 ft | 429 kts | 292° |
| 2026-05-06 18:50 | 49.55410 | 13.40952 | 37743 ft | 430 kts | 292° |
| 2026-05-06 18:51 | 49.58214 | 13.32801 | 37741 ft | 431 kts | 292° |
| 2026-05-06 18:51 | 49.60537 | 13.26007 | 37741 ft | 432 kts | 292° |
| 2026-05-06 18:52 | 49.63334 | 13.17812 | 37742 ft | 432 kts | 292° |
| 2026-05-06 18:52 | 49.66130 | 13.09611 | 37752 ft | 432 kts | 292° |
| 2026-05-06 18:53 | 49.68917 | 13.01395 | 37763 ft | 432 kts | 292° |
| 2026-05-06 18:53 | 49.71699 | 12.93177 | 37764 ft | 432 kts | 292° |
| 2026-05-06 18:54 | 49.74479 | 12.84942 | 37773 ft | 432 kts | 292° |
| 2026-05-06 18:54 | 49.77247 | 12.76701 | 37774 ft | 432 kts | 292° |
| 2026-05-06 18:55 | 49.80848 | 12.69200 | 37777 ft | 449 kts | 319° |
| 2026-05-06 18:55 | 49.86196 | 12.64051 | 37762 ft | 454 kts | 324° |
| 2026-05-06 18:56 | 49.91642 | 12.59058 | 37761 ft | 456 kts | 325° |
| 2026-05-06 18:56 | 49.96876 | 12.53602 | 37771 ft | 447 kts | 309° |
| 2026-05-06 18:56 | 49.98763 | 12.49861 | 37784 ft | 435 kts | 294° |
| 2026-05-06 18:57 | 50.00002 | 12.45634 | 37784 ft | 428 kts | 286° |
| 2026-05-06 18:57 | 50.02218 | 12.37040 | 37801 ft | 429 kts | 286° |
| 2026-05-06 18:58 | 50.04442 | 12.28419 | 37796 ft | 430 kts | 286° |
| 2026-05-06 18:58 | 50.06647 | 12.19840 | 37789 ft | 430 kts | 286° |
| 2026-05-06 18:59 | 50.08873 | 12.11133 | 37786 ft | 430 kts | 286° |
| 2026-05-06 18:59 | 50.11087 | 12.02470 | 37783 ft | 430 kts | 286° |
| 2026-05-06 19:00 | 50.13284 | 11.93802 | 37807 ft | 430 kts | 287° |
| 2026-05-06 19:00 | 50.15458 | 11.85185 | 37791 ft | 430 kts | 286° |
| 2026-05-06 19:01 | 50.17643 | 11.76500 | 37793 ft | 430 kts | 286° |
| 2026-05-06 19:01 | 50.19817 | 11.67820 | 37818 ft | 430 kts | 286° |
| 2026-05-06 19:02 | 50.21988 | 11.59124 | 37582 ft | 430 kts | 286° |
| 2026-05-06 19:02 | 50.23075 | 11.54768 | 37224 ft | 431 kts | 287° |
| 2026-05-06 19:02 | 50.24163 | 11.50412 | 36832 ft | 431 kts | 286° |
| 2026-05-06 19:02 | 50.25248 | 11.46049 | 36435 ft | 431 kts | 286° |
| 2026-05-06 19:03 | 50.26329 | 11.41679 | 36058 ft | 431 kts | 285° |
| 2026-05-06 19:03 | 50.27410 | 11.37299 | 35685 ft | 430 kts | 285° |
| 2026-05-06 19:03 | 50.28480 | 11.32956 | 35312 ft | 429 kts | 285° |
| 2026-05-06 19:03 | 50.29551 | 11.28610 | 34942 ft | 428 kts | 285° |
| 2026-05-06 19:04 | 50.30620 | 11.24269 | 34586 ft | 427 kts | 285° |
| 2026-05-06 19:04 | 50.31685 | 11.19941 | 34225 ft | 425 kts | 284° |
| 2026-05-06 19:04 | 50.32740 | 11.15633 | 33876 ft | 423 kts | 284° |
| 2026-05-06 19:04 | 50.33787 | 11.11346 | 33492 ft | 421 kts | 284° |
| 2026-05-06 19:05 | 50.34827 | 11.07068 | 33076 ft | 420 kts | 284° |
| 2026-05-06 19:05 | 50.35865 | 11.02785 | 32676 ft | 419 kts | 285° |
| 2026-05-06 19:05 | 50.36893 | 10.98534 | 32376 ft | 416 kts | 284° |
| 2026-05-06 19:05 | 50.37913 | 10.94321 | 32108 ft | 411 kts | 285° |
| 2026-05-06 19:06 | 50.38927 | 10.90152 | 31862 ft | 407 kts | 285° |
| 2026-05-06 19:06 | 50.40905 | 10.82023 | 31798 ft | 393 kts | 284° |
| 2026-05-06 19:07 | 50.42815 | 10.74031 | 31799 ft | 390 kts | 284° |
| 2026-05-06 19:07 | 50.44277 | 10.65918 | 31483 ft | 387 kts | 277° |
| 2026-05-06 19:07 | 50.44868 | 10.61777 | 31227 ft | 389 kts | 277° |
| 2026-05-06 19:08 | 50.45458 | 10.57633 | 30798 ft | 390 kts | 277° |
| 2026-05-06 19:08 | 50.46053 | 10.53464 | 30310 ft | 393 kts | 278° |
| 2026-05-06 19:08 | 50.46662 | 10.49279 | 29803 ft | 396 kts | 280° |
| 2026-05-06 19:08 | 50.47597 | 10.45177 | 29228 ft | 403 kts | 290° |
| 2026-05-06 19:09 | 50.48808 | 10.41196 | 28637 ft | 405 kts | 291° |
| 2026-05-06 19:09 | 50.50024 | 10.37190 | 28106 ft | 405 kts | 291° |
| 2026-05-06 19:09 | 50.51227 | 10.33210 | 27697 ft | 403 kts | 291° |
| 2026-05-06 19:09 | 50.52418 | 10.29242 | 27288 ft | 400 kts | 291° |
| 2026-05-06 19:10 | 50.53598 | 10.25288 | 26907 ft | 398 kts | 291° |
| 2026-05-06 19:10 | 50.54766 | 10.21366 | 26514 ft | 395 kts | 292° |
| 2026-05-06 19:10 | 50.55930 | 10.17464 | 26138 ft | 393 kts | 292° |
| 2026-05-06 19:10 | 50.57089 | 10.13579 | 25820 ft | 392 kts | 292° |
| 2026-05-06 19:11 | 50.58244 | 10.09708 | 25572 ft | 391 kts | 292° |
| 2026-05-06 19:11 | 50.59399 | 10.05840 | 25321 ft | 389 kts | 292° |
| 2026-05-06 19:11 | 50.60545 | 10.01990 | 25069 ft | 387 kts | 292° |
| 2026-05-06 19:11 | 50.61680 | 9.98156 | 24733 ft | 385 kts | 292° |
| 2026-05-06 19:12 | 50.62808 | 9.94336 | 24409 ft | 383 kts | 292° |
| 2026-05-06 19:12 | 50.63926 | 9.90541 | 24081 ft | 381 kts | 292° |
| 2026-05-06 19:12 | 50.65036 | 9.86760 | 23736 ft | 379 kts | 292° |
| 2026-05-06 19:12 | 50.66120 | 9.83052 | 23404 ft | 377 kts | 292° |
| 2026-05-06 19:13 | 50.67213 | 9.79325 | 23162 ft | 371 kts | 292° |
| 2026-05-06 19:13 | 50.68289 | 9.75657 | 22824 ft | 367 kts | 292° |
| 2026-05-06 19:13 | 50.69355 | 9.72022 | 22446 ft | 364 kts | 292° |
| 2026-05-06 19:13 | 50.70413 | 9.68404 | 22042 ft | 362 kts | 292° |
| 2026-05-06 19:14 | 50.71309 | 9.64725 | 21637 ft | 358 kts | 285° |
| 2026-05-06 19:14 | 50.72062 | 9.60989 | 21221 ft | 356 kts | 285° |
| 2026-05-06 19:14 | 50.72796 | 9.57271 | 20817 ft | 354 kts | 285° |
| 2026-05-06 19:14 | 50.73513 | 9.53570 | 20393 ft | 352 kts | 285° |
| 2026-05-06 19:15 | 50.74222 | 9.49881 | 20062 ft | 351 kts | 285° |
| 2026-05-06 19:15 | 50.74933 | 9.46197 | 19808 ft | 350 kts | 285° |
| 2026-05-06 19:15 | 50.75643 | 9.42519 | 19557 ft | 349 kts | 285° |
| 2026-05-06 19:15 | 50.76348 | 9.38860 | 19321 ft | 348 kts | 284° |
| 2026-05-06 19:16 | 50.77049 | 9.35208 | 19101 ft | 345 kts | 284° |
| 2026-05-06 19:16 | 50.77744 | 9.31590 | 18857 ft | 344 kts | 284° |
| 2026-05-06 19:16 | 50.78436 | 9.27985 | 18615 ft | 342 kts | 284° |
| 2026-05-06 19:16 | 50.79126 | 9.24386 | 18383 ft | 341 kts | 284° |
| 2026-05-06 19:17 | 50.79813 | 9.20805 | 18141 ft | 340 kts | 284° |
| 2026-05-06 19:17 | 50.80496 | 9.17233 | 17875 ft | 339 kts | 284° |
| 2026-05-06 19:17 | 50.81178 | 9.13675 | 17605 ft | 338 kts | 284° |